Time;durP1;ratioP1;P1;durP2;ratioP2;P2;SDS_P1;SDS_P2;PMS_P1;PMS_P2;Temp;Humidity;BMP_temperature;BMP_pressure;BME280_temperature;BME280_humidity;BME280_pressure;Samples;Min_cycle;Max_cycle;Signal;HPM_P1;HPM_P2
2023/12/12 00:00:38;;;;;;;;;;;4.30;88.10;;;;;;4996734;28;92724;-43
2023/12/12 00:03:03;;;;;;;;;;;4.30;88.00;;;;;;4999139;28;92050;-43
2023/12/12 00:05:29;;;;;;;;;;;4.30;88.10;;;;;;4998377;28;92069;-43
2023/12/12 00:07:55;;;;;;;;;;;4.30;88.10;;;;;;4994338;28;93428;-44
2023/12/12 00:10:21;;;;;;;;;;;4.30;88.10;;;;;;4999513;28;92694;-44
2023/12/12 00:12:46;;;;;;;;;;;4.30;88.20;;;;;;4997962;28;92792;-44
2023/12/12 00:15:12;;;;;;;;;;;4.30;88.00;;;;;;4998175;28;91991;-44
2023/12/12 00:17:38;;;;;;;;;;;4.30;87.90;;;;;;4996492;28;91989;-44
2023/12/12 00:20:07;;;;;;;;;;;4.30;87.90;;;;;;4995840;28;92540;-43
2023/12/12 00:22:32;;;;;;;;;;;4.30;87.90;;;;;;4999578;28;92155;-44
2023/12/12 00:24:58;;;;;;;;;;;4.30;88.10;;;;;;4998487;28;91773;-45
2023/12/12 00:27:24;;;;;;;;;;;4.30;88.20;;;;;;4993074;28;93524;-44
2023/12/12 00:29:49;;;;;;;;;;;4.30;88.00;;;;;;4996763;28;92051;-43
2023/12/12 00:32:15;;;;;;;;;;;4.30;88.10;;;;;;4999208;28;93238;-43
2023/12/12 00:34:40;;;;;;;;;;;4.30;88.10;;;;;;4996755;28;92530;-44
2023/12/12 00:37:06;;;;;;;;;;;4.30;88.00;;;;;;4994083;28;91947;-44
2023/12/12 00:39:35;;;;;;;;;;;4.30;88.20;;;;;;4994263;28;92579;-44
2023/12/12 00:42:01;;;;;;;;;;;4.30;88.20;;;;;;4993139;28;92105;-43
2023/12/12 00:44:27;;;;;;;;;;;4.30;88.10;;;;;;4994363;28;91997;-44
2023/12/12 00:46:52;;;;;;;;;;;4.30;88.10;;;;;;4995282;28;92572;-45
2023/12/12 00:49:18;;;;;;;;;;;4.30;87.80;;;;;;4997291;28;91196;-43
2023/12/12 00:51:43;;;;;;;;;;;4.30;88.00;;;;;;4997033;28;92161;-44
2023/12/12 00:54:09;;;;;;;;;;;4.30;88.10;;;;;;4995608;28;93486;-44
2023/12/12 00:56:34;;;;;;;;;;;4.30;88.10;;;;;;4999333;28;92947;-44
2023/12/12 00:59:00;;;;;;;;;;;4.30;87.90;;;;;;4998143;28;92516;-44
2023/12/12 01:01:26;;;;;;;;;;;4.30;87.90;;;;;;4996814;28;92050;-43
2023/12/12 01:03:51;;;;;;;;;;;4.40;87.90;;;;;;4994733;28;92104;-43
2023/12/12 01:06:22;;;;;;;;;;;4.30;87.90;;;;;;4994818;28;93729;-43
2023/12/12 01:08:47;;;;;;;;;;;4.30;87.80;;;;;;4994467;28;91923;-43
2023/12/12 01:11:13;;;;;;;;;;;4.30;88.00;;;;;;4996221;28;93206;-44
2023/12/12 01:13:38;;;;;;;;;;;4.30;88.10;;;;;;4995687;28;91868;-43
2023/12/12 01:16:04;;;;;;;;;;;4.30;88.00;;;;;;4995824;28;92362;-43
2023/12/12 01:18:31;;;;;;;;;;;4.30;88.20;;;;;;4993445;28;92543;-44
2023/12/12 01:20:56;;;;;;;;;;;4.30;87.90;;;;;;4992922;28;93078;-44
2023/12/12 01:23:22;;;;;;;;;;;4.30;88.00;;;;;;4994944;28;92667;-43
2023/12/12 01:25:47;;;;;;;;;;;4.30;88.10;;;;;;4991455;28;92519;-43
2023/12/12 01:28:13;;;;;;;;;;;4.30;88.10;;;;;;4993421;28;92129;-44
2023/12/12 01:30:39;;;;;;;;;;;4.30;88.10;;;;;;4994348;28;92030;-44
2023/12/12 01:33:04;;;;;;;;;;;4.30;88.10;;;;;;4993358;28;92704;-44
2023/12/12 01:35:30;;;;;;;;;;;4.30;88.00;;;;;;4995614;28;92048;-43
2023/12/12 01:37:55;;;;;;;;;;;4.30;88.10;;;;;;4999422;28;92961;-44
2023/12/12 01:40:22;;;;;;;;;;;4.30;88.10;;;;;;4997634;28;92074;-43
2023/12/12 01:42:47;;;;;;;;;;;4.30;88.00;;;;;;4998129;28;93066;-44
2023/12/12 01:45:13;;;;;;;;;;;4.30;88.00;;;;;;4993888;28;94647;-44
2023/12/12 01:47:38;;;;;;;;;;;4.30;88.00;;;;;;4995383;28;92116;-44
2023/12/12 01:50:05;;;;;;;;;;;4.30;88.10;;;;;;4996309;28;92199;-44
2023/12/12 01:52:31;;;;;;;;;;;4.30;88.10;;;;;;4991951;28;91990;-43
2023/12/12 01:54:57;;;;;;;;;;;4.30;88.00;;;;;;4993467;28;92084;-44
2023/12/12 01:57:23;;;;;;;;;;;4.30;88.10;;;;;;5000146;28;91947;-46
2023/12/12 01:59:48;;;;;;;;;;;4.30;88.20;;;;;;4994430;28;92496;-44
2023/12/12 02:02:16;;;;;;;;;;;4.30;88.10;;;;;;4995609;28;91432;-45
2023/12/12 02:04:42;;;;;;;;;;;4.20;88.00;;;;;;4995927;28;93731;-45
2023/12/12 02:07:08;;;;;;;;;;;4.30;88.20;;;;;;4998106;28;91848;-44
2023/12/12 02:09:34;;;;;;;;;;;4.30;88.00;;;;;;4993766;28;93025;-44
2023/12/12 02:11:59;;;;;;;;;;;4.20;87.90;;;;;;4992877;28;93755;-43
2023/12/12 02:14:25;;;;;;;;;;;4.20;88.10;;;;;;4992327;28;92239;-43
2023/12/12 02:16:50;;;;;;;;;;;4.30;88.10;;;;;;4993206;28;92168;-44
2023/12/12 02:19:16;;;;;;;;;;;4.30;88.10;;;;;;4998789;28;92623;-43
2023/12/12 02:21:42;;;;;;;;;;;4.20;88.30;;;;;;4997296;28;92062;-44
2023/12/12 02:24:07;;;;;;;;;;;4.20;88.00;;;;;;4997994;28;92195;-44
2023/12/12 02:26:33;;;;;;;;;;;4.20;88.00;;;;;;4994488;28;91397;-44
2023/12/12 02:28:59;;;;;;;;;;;4.20;88.10;;;;;;4992605;28;92002;-43
2023/12/12 02:31:24;;;;;;;;;;;4.20;87.90;;;;;;4993305;28;92423;-45
2023/12/12 02:33:50;;;;;;;;;;;4.20;88.10;;;;;;4992311;28;93009;-44
2023/12/12 02:36:15;;;;;;;;;;;4.20;88.30;;;;;;4993382;28;92665;-44
2023/12/12 02:38:41;;;;;;;;;;;4.20;88.20;;;;;;4994930;28;92401;-43
2023/12/12 02:41:08;;;;;;;;;;;4.20;88.30;;;;;;4996806;28;92038;-44
2023/12/12 02:43:34;;;;;;;;;;;4.20;88.10;;;;;;4996503;28;93505;-44
2023/12/12 02:46:00;;;;;;;;;;;4.20;88.00;;;;;;4992534;28;92115;-44
2023/12/12 02:48:26;;;;;;;;;;;4.20;88.20;;;;;;4994645;28;91976;-43
2023/12/12 02:50:51;;;;;;;;;;;4.20;88.00;;;;;;4992923;28;94330;-44
2023/12/12 02:53:17;;;;;;;;;;;4.20;87.90;;;;;;4997090;28;92177;-44
2023/12/12 02:55:43;;;;;;;;;;;4.20;88.10;;;;;;4990842;28;92158;-43
2023/12/12 02:58:08;;;;;;;;;;;4.20;88.10;;;;;;4996395;28;94396;-43
2023/12/12 03:00:34;;;;;;;;;;;4.20;88.20;;;;;;4990782;28;92535;-44
2023/12/12 03:02:59;;;;;;;;;;;4.20;88.20;;;;;;4993049;28;92302;-44
2023/12/12 03:05:25;;;;;;;;;;;4.20;88.10;;;;;;4992959;28;92078;-44
2023/12/12 03:07:50;;;;;;;;;;;4.20;88.20;;;;;;4990744;28;93127;-44
2023/12/12 03:10:16;;;;;;;;;;;4.20;88.20;;;;;;4992276;28;92500;-43
2023/12/12 03:12:41;;;;;;;;;;;4.20;88.20;;;;;;4992976;28;92066;-44
2023/12/12 03:15:07;;;;;;;;;;;4.10;88.10;;;;;;4991406;28;92964;-43
2023/12/12 03:17:33;;;;;;;;;;;4.20;88.20;;;;;;4992896;28;93398;-46
2023/12/12 03:19:58;;;;;;;;;;;4.20;88.20;;;;;;4994355;28;92149;-44
2023/12/12 03:22:24;;;;;;;;;;;4.20;88.10;;;;;;4994342;28;93609;-44
2023/12/12 03:24:49;;;;;;;;;;;4.20;88.10;;;;;;4996911;28;92066;-43
2023/12/12 03:27:15;;;;;;;;;;;4.20;88.10;;;;;;4997196;28;91974;-43
2023/12/12 03:29:40;;;;;;;;;;;4.20;88.20;;;;;;4998407;28;92721;-43
2023/12/12 03:32:06;;;;;;;;;;;4.20;88.10;;;;;;4998338;28;92202;-44
2023/12/12 03:34:31;;;;;;;;;;;4.10;88.10;;;;;;4994802;28;92059;-44
2023/12/12 03:36:57;;;;;;;;;;;4.20;88.20;;;;;;4996459;28;92505;-43
2023/12/12 03:39:22;;;;;;;;;;;4.20;88.00;;;;;;4997639;28;91358;-43
2023/12/12 03:41:48;;;;;;;;;;;4.20;88.00;;;;;;4997349;28;91994;-44
2023/12/12 03:44:14;;;;;;;;;;;4.20;88.10;;;;;;4995139;28;92540;-44
2023/12/12 03:46:39;;;;;;;;;;;4.20;88.00;;;;;;5002303;28;93159;-44
2023/12/12 03:49:05;;;;;;;;;;;4.20;88.10;;;;;;4998189;28;92768;-44
2023/12/12 03:51:30;;;;;;;;;;;4.20;88.10;;;;;;4994131;28;92686;-44
2023/12/12 03:53:56;;;;;;;;;;;4.20;88.20;;;;;;4995599;28;91903;-46
2023/12/12 03:56:21;;;;;;;;;;;4.10;88.10;;;;;;4996476;28;92499;-44
2023/12/12 03:58:47;;;;;;;;;;;4.20;88.20;;;;;;4997886;28;92079;-44
2023/12/12 04:01:13;;;;;;;;;;;4.10;88.10;;;;;;4997729;28;92786;-43
2023/12/12 04:03:39;;;;;;;;;;;4.10;88.10;;;;;;4994395;28;91734;-44
2023/12/12 04:06:05;;;;;;;;;;;4.20;88.10;;;;;;5004399;28;92072;-43
2023/12/12 04:08:31;;;;;;;;;;;4.10;88.20;;;;;;4999588;28;91916;-44
2023/12/12 04:10:57;;;;;;;;;;;4.10;88.10;;;;;;5000156;28;93042;-43
2023/12/12 04:13:22;;;;;;;;;;;4.10;88.20;;;;;;5000203;28;93013;-43
2023/12/12 04:15:48;;;;;;;;;;;4.20;88.20;;;;;;4994621;28;92497;-44
2023/12/12 04:18:13;;;;;;;;;;;4.20;88.20;;;;;;4988347;27;92062;-43
2023/12/12 04:20:39;;;;;;;;;;;4.10;88.10;;;;;;4998389;28;92001;-43
2023/12/12 04:23:05;;;;;;;;;;;4.10;88.10;;;;;;4991313;28;92483;-44
2023/12/12 04:25:30;;;;;;;;;;;4.10;88.30;;;;;;4997925;28;92150;-43
2023/12/12 04:27:56;;;;;;;;;;;4.10;88.20;;;;;;4997902;28;91750;-43
2023/12/12 04:30:21;;;;;;;;;;;4.10;88.00;;;;;;4992792;28;92591;-44
2023/12/12 04:32:47;;;;;;;;;;;4.10;88.20;;;;;;4997597;28;91869;-44
2023/12/12 04:35:12;;;;;;;;;;;4.10;88.00;;;;;;4995671;28;92916;-43
2023/12/12 04:37:38;;;;;;;;;;;4.10;88.70;;;;;;4997855;28;92106;-44
2023/12/12 04:40:04;;;;;;;;;;;4.10;88.00;;;;;;4995303;28;92478;-44
2023/12/12 04:42:29;;;;;;;;;;;4.10;88.20;;;;;;4996925;28;92476;-43
2023/12/12 04:44:55;;;;;;;;;;;4.20;88.00;;;;;;4996809;28;92046;-44
2023/12/12 04:47:20;;;;;;;;;;;4.20;88.00;;;;;;4997545;28;92932;-44
2023/12/12 04:49:46;;;;;;;;;;;4.10;88.10;;;;;;4999501;28;93716;-44
2023/12/12 04:52:11;;;;;;;;;;;4.20;88.00;;;;;;4995924;28;91490;-44
2023/12/12 04:54:37;;;;;;;;;;;4.20;88.00;;;;;;4994504;28;92550;-43
2023/12/12 04:57:03;;;;;;;;;;;4.20;88.10;;;;;;4995866;28;92066;-44
2023/12/12 04:59:28;;;;;;;;;;;4.10;88.10;;;;;;4999431;28;92856;-44
2023/12/12 05:01:54;;;;;;;;;;;4.10;88.00;;;;;;4996484;28;92553;-45
2023/12/12 05:04:19;;;;;;;;;;;4.10;87.90;;;;;;4999849;28;92007;-44
2023/12/12 05:06:45;;;;;;;;;;;4.10;88.10;;;;;;4997097;28;92300;-44
2023/12/12 05:09:11;;;;;;;;;;;4.10;88.10;;;;;;4999359;28;93976;-44
2023/12/12 05:11:37;;;;;;;;;;;4.20;88.00;;;;;;4999238;28;92191;-43
2023/12/12 05:14:04;;;;;;;;;;;4.10;88.00;;;;;;4990843;28;93621;-43
2023/12/12 05:16:30;;;;;;;;;;;4.10;87.90;;;;;;4996511;28;91316;-43
2023/12/12 05:18:55;;;;;;;;;;;4.10;88.10;;;;;;4996109;28;92099;-43
2023/12/12 05:21:21;;;;;;;;;;;4.10;88.10;;;;;;4992259;28;91830;-44
2023/12/12 05:23:48;;;;;;;;;;;4.10;88.00;;;;;;4993303;28;93081;-44
2023/12/12 05:26:13;;;;;;;;;;;4.10;88.20;;;;;;4998430;28;92678;-45
2023/12/12 05:28:39;;;;;;;;;;;4.10;88.00;;;;;;4994212;28;92332;-44
2023/12/12 05:31:04;;;;;;;;;;;4.10;88.20;;;;;;4997227;28;92057;-43
2023/12/12 05:33:30;;;;;;;;;;;4.10;88.20;;;;;;5001475;28;93027;-44
2023/12/12 05:35:55;;;;;;;;;;;4.20;88.10;;;;;;4996208;28;92041;-44
2023/12/12 05:38:21;;;;;;;;;;;4.20;88.10;;;;;;4991931;28;91980;-44
2023/12/12 05:40:47;;;;;;;;;;;4.10;87.90;;;;;;4992681;28;92842;-43
2023/12/12 05:43:12;;;;;;;;;;;4.10;88.10;;;;;;4992137;28;92058;-44
2023/12/12 05:45:38;;;;;;;;;;;4.10;88.10;;;;;;4995794;28;92472;-44
2023/12/12 05:48:03;;;;;;;;;;;4.10;88.10;;;;;;4997588;28;93358;-43
2023/12/12 05:50:30;;;;;;;;;;;4.10;88.10;;;;;;4999427;28;92051;-43
2023/12/12 05:52:56;;;;;;;;;;;4.20;88.20;;;;;;4996541;28;92961;-44
2023/12/12 05:55:21;;;;;;;;;;;4.20;88.10;;;;;;4996808;28;93729;-44
2023/12/12 05:57:48;;;;;;;;;;;4.10;88.10;;;;;;4994426;28;92115;-44
2023/12/12 06:00:14;;;;;;;;;;;4.10;88.10;;;;;;4994368;28;92494;-43
2023/12/12 06:02:39;;;;;;;;;;;4.10;88.20;;;;;;5001011;28;92293;-45
2023/12/12 06:05:07;;;;;;;;;;;4.10;88.30;;;;;;4991801;28;93101;-44
2023/12/12 06:07:36;;;;;;;;;;;4.10;88.80;;;;;;4994854;28;93526;-44
2023/12/12 06:10:04;;;;;;;;;;;4.10;88.10;;;;;;5001015;28;92178;-43
2023/12/12 06:12:30;;;;;;;;;;;4.10;88.20;;;;;;4996783;28;93220;-43
2023/12/12 06:14:56;;;;;;;;;;;4.10;88.20;;;;;;4988047;28;92109;-43
2023/12/12 06:17:22;;;;;;;;;;;4.10;88.60;;;;;;5000689;28;92083;-43
2023/12/12 06:19:47;;;;;;;;;;;4.20;88.10;;;;;;4993175;28;92497;-43
2023/12/12 06:22:13;;;;;;;;;;;4.10;88.10;;;;;;4994802;28;92127;-44
2023/12/12 06:24:39;;;;;;;;;;;4.10;88.70;;;;;;4991925;28;92548;-44
2023/12/12 06:27:04;;;;;;;;;;;4.10;88.20;;;;;;4996878;28;93947;-44
2023/12/12 06:29:30;;;;;;;;;;;4.10;88.20;;;;;;5000298;28;91337;-44
2023/12/12 06:31:55;;;;;;;;;;;4.10;88.80;;;;;;4994151;28;92051;-43
2023/12/12 06:34:21;;;;;;;;;;;4.10;88.40;;;;;;4990496;28;92288;-44
2023/12/12 06:36:47;;;;;;;;;;;4.10;88.30;;;;;;4994513;28;93038;-43
2023/12/12 06:39:14;;;;;;;;;;;4.10;88.30;;;;;;4993072;28;92441;-44
2023/12/12 06:41:40;;;;;;;;;;;4.10;88.30;;;;;;4993830;28;92093;-43
2023/12/12 06:44:06;;;;;;;;;;;4.10;88.30;;;;;;4992103;28;92157;-45
2023/12/12 06:46:32;;;;;;;;;;;4.10;88.30;;;;;;4998211;28;93691;-44
2023/12/12 06:48:57;;;;;;;;;;;4.10;88.30;;;;;;4993824;28;93773;-44
2023/12/12 06:51:23;;;;;;;;;;;4.10;88.30;;;;;;4986370;28;93171;-43
2023/12/12 06:53:49;;;;;;;;;;;4.10;88.30;;;;;;4991335;28;91687;-44
2023/12/12 06:56:14;;;;;;;;;;;4.10;88.20;;;;;;4990492;28;92344;-44
2023/12/12 06:58:40;;;;;;;;;;;4.10;88.20;;;;;;4991049;28;94642;-44
2023/12/12 07:01:06;;;;;;;;;;;4.10;88.20;;;;;;4992354;28;94631;-43
2023/12/12 07:03:32;;;;;;;;;;;4.10;88.20;;;;;;4986450;28;94117;-44
2023/12/12 07:05:58;;;;;;;;;;;4.20;88.30;;;;;;4994038;28;93508;-44
2023/12/12 07:08:24;;;;;;;;;;;4.10;88.20;;;;;;4991252;28;92125;-44
2023/12/12 07:10:49;;;;;;;;;;;4.20;88.30;;;;;;4993419;28;92818;-44
2023/12/12 07:13:15;;;;;;;;;;;4.20;88.20;;;;;;4996623;28;92792;-43
2023/12/12 07:15:40;;;;;;;;;;;4.20;88.30;;;;;;4990329;28;92080;-43
2023/12/12 07:18:11;;;;;;;;;;;4.20;88.30;;;;;;4995292;28;92688;-44
2023/12/12 07:20:37;;;;;;;;;;;4.20;88.10;;;;;;4994491;28;93752;-44
2023/12/12 07:23:04;;;;;;;;;;;4.20;88.20;;;;;;4990220;28;92155;-43
2023/12/12 07:25:29;;;;;;;;;;;4.20;88.30;;;;;;4992960;28;94817;-44
2023/12/12 07:27:55;;;;;;;;;;;4.20;88.10;;;;;;4994047;28;92841;-43
2023/12/12 07:30:20;;;;;;;;;;;4.20;88.10;;;;;;4995135;28;91841;-45
2023/12/12 07:32:46;;;;;;;;;;;4.20;88.10;;;;;;4994306;28;92620;-44
2023/12/12 07:35:12;;;;;;;;;;;4.10;88.00;;;;;;4993566;28;92080;-44
2023/12/12 07:37:37;;;;;;;;;;;4.20;88.20;;;;;;4994659;28;93746;-44
2023/12/12 07:40:04;;;;;;;;;;;4.20;88.30;;;;;;4990160;28;93443;-44
2023/12/12 07:42:30;;;;;;;;;;;4.20;88.30;;;;;;4999909;28;91251;-44
2023/12/12 07:44:56;;;;;;;;;;;4.20;88.20;;;;;;4988767;28;92472;-43
2023/12/12 07:47:22;;;;;;;;;;;4.20;88.30;;;;;;4996251;28;92065;-44
2023/12/12 07:49:47;;;;;;;;;;;4.20;88.00;;;;;;4993735;28;93106;-44
2023/12/12 07:52:13;;;;;;;;;;;4.20;88.20;;;;;;4990054;28;92466;-43
2023/12/12 07:54:39;;;;;;;;;;;4.20;88.20;;;;;;4991524;28;92089;-44
2023/12/12 07:57:05;;;;;;;;;;;4.20;88.00;;;;;;4996886;28;92834;-44
2023/12/12 07:59:30;;;;;;;;;;;4.20;88.20;;;;;;4990985;28;91918;-44
2023/12/12 08:01:56;;;;;;;;;;;4.20;88.20;;;;;;4995190;28;92064;-44
2023/12/12 08:04:22;;;;;;;;;;;4.20;88.20;;;;;;4998844;28;92106;-44
2023/12/12 08:06:47;;;;;;;;;;;4.20;87.90;;;;;;4994593;28;91423;-43
2023/12/12 08:09:13;;;;;;;;;;;4.20;88.00;;;;;;4990730;28;92040;-43
2023/12/12 08:11:39;;;;;;;;;;;4.20;88.00;;;;;;4993517;28;92568;-44
2023/12/12 08:14:05;;;;;;;;;;;4.20;87.90;;;;;;4994648;28;93047;-44
2023/12/12 08:16:31;;;;;;;;;;;4.20;87.90;;;;;;4993607;28;93844;-44
2023/12/12 08:18:56;;;;;;;;;;;4.20;87.70;;;;;;4995309;28;93607;-44
2023/12/12 08:21:22;;;;;;;;;;;4.20;88.00;;;;;;4996330;28;92133;-44
2023/12/12 08:23:48;;;;;;;;;;;4.20;87.90;;;;;;4999402;28;92864;-43
2023/12/12 08:26:14;;;;;;;;;;;4.30;87.80;;;;;;4996715;28;92494;-43
2023/12/12 08:28:39;;;;;;;;;;;4.30;87.90;;;;;;4994791;28;91993;-45
2023/12/12 08:31:05;;;;;;;;;;;4.30;88.00;;;;;;4995559;28;93665;-43
2023/12/12 08:33:31;;;;;;;;;;;4.30;87.90;;;;;;4993503;28;92413;-44
2023/12/12 08:35:57;;;;;;;;;;;4.30;87.90;;;;;;4997262;28;92080;-44
2023/12/12 08:38:23;;;;;;;;;;;4.30;87.80;;;;;;4997028;28;93685;-45
2023/12/12 08:40:49;;;;;;;;;;;4.30;87.90;;;;;;4993267;28;93765;-45
2023/12/12 08:43:14;;;;;;;;;;;4.20;88.00;;;;;;4993719;28;93111;-45
2023/12/12 08:45:40;;;;;;;;;;;4.30;88.10;;;;;;4993586;28;92607;-46
2023/12/12 08:48:05;;;;;;;;;;;4.30;88.10;;;;;;4998286;28;92101;-44
2023/12/12 08:50:31;;;;;;;;;;;4.30;88.00;;;;;;4992960;28;92463;-44
2023/12/12 08:52:58;;;;;;;;;;;4.30;88.10;;;;;;4995154;28;93541;-44
2023/12/12 08:55:23;;;;;;;;;;;4.30;88.40;;;;;;4995578;28;93103;-44
2023/12/12 08:57:49;;;;;;;;;;;4.30;88.20;;;;;;4998123;28;93711;-44
2023/12/12 09:00:15;;;;;;;;;;;4.30;88.20;;;;;;4992048;28;93478;-44
2023/12/12 09:02:40;;;;;;;;;;;4.30;88.30;;;;;;4994706;28;93446;-44
2023/12/12 09:05:07;;;;;;;;;;;4.30;88.20;;;;;;4993513;28;92458;-44
2023/12/12 09:07:36;;;;;;;;;;;4.30;88.20;;;;;;4995644;28;92223;-44
2023/12/12 09:10:05;;;;;;;;;;;4.30;88.10;;;;;;4991443;28;92531;-44
2023/12/12 09:12:31;;;;;;;;;;;4.30;88.10;;;;;;4991571;28;92056;-44
2023/12/12 09:14:56;;;;;;;;;;;4.40;88.10;;;;;;4997100;28;91939;-44
2023/12/12 09:17:22;;;;;;;;;;;4.30;88.10;;;;;;4992336;28;93583;-44
2023/12/12 09:19:47;;;;;;;;;;;4.40;88.10;;;;;;4996495;28;91277;-44
2023/12/12 09:22:13;;;;;;;;;;;4.40;88.20;;;;;;4994272;28;92039;-43
2023/12/12 09:24:39;;;;;;;;;;;4.40;88.10;;;;;;4994795;28;92544;-44
2023/12/12 09:27:05;;;;;;;;;;;4.40;88.00;;;;;;4997794;28;92988;-43
2023/12/12 09:29:31;;;;;;;;;;;4.40;88.00;;;;;;4993830;28;93731;-44
2023/12/12 09:31:56;;;;;;;;;;;4.40;88.20;;;;;;4992586;28;92488;-44
2023/12/12 09:34:23;;;;;;;;;;;4.40;88.10;;;;;;4999772;28;92057;-44
2023/12/12 09:36:50;;;;;;;;;;;4.40;88.00;;;;;;4993351;28;93644;-43
2023/12/12 09:39:16;;;;;;;;;;;4.40;88.10;;;;;;4988791;28;92584;-43
2023/12/12 09:41:45;;;;;;;;;;;4.40;88.10;;;;;;4996603;28;91971;-43
2023/12/12 09:44:13;;;;;;;;;;;4.40;88.10;;;;;;4994478;28;91869;-44
2023/12/12 09:46:41;;;;;;;;;;;4.40;88.00;;;;;;4992595;28;92082;-43
2023/12/12 09:49:08;;;;;;;;;;;4.40;88.20;;;;;;4988702;28;92968;-43
2023/12/12 09:51:34;;;;;;;;;;;4.50;88.20;;;;;;4997010;28;94553;-43
2023/12/12 09:54:01;;;;;;;;;;;4.40;88.80;;;;;;4992533;28;93765;-43
2023/12/12 09:56:27;;;;;;;;;;;4.40;88.30;;;;;;4989485;28;92516;-44
2023/12/12 09:58:52;;;;;;;;;;;4.50;88.10;;;;;;4994827;28;92091;-45
2023/12/12 10:01:18;;;;;;;;;;;4.50;88.20;;;;;;5002355;28;94730;-44
2023/12/12 10:03:44;;;;;;;;;;;4.50;88.10;;;;;;4994432;28;93357;-44
2023/12/12 10:06:13;;;;;;;;;;;4.60;88.00;;;;;;4991293;28;92844;-44
2023/12/12 10:08:39;;;;;;;;;;;4.50;88.00;;;;;;4994727;28;91723;-44
2023/12/12 10:11:06;;;;;;;;;;;4.50;88.60;;;;;;4993319;28;92509;-45
2023/12/12 10:13:53;;;;;;;;;;;4.50;88.40;;;;;;4998798;28;92987;-44
2023/12/12 10:16:20;;;;;;;;;;;4.50;88.40;;;;;;4989263;28;94820;-44
2023/12/12 10:18:46;;;;;;;;;;;4.50;88.20;;;;;;4994822;28;91985;-44
2023/12/12 10:21:15;;;;;;;;;;;4.60;88.50;;;;;;4992946;28;92927;-44
2023/12/12 10:23:51;;;;;;;;;;;4.60;88.20;;;;;;4992783;28;93559;-44
2023/12/12 10:26:25;;;;;;;;;;;4.60;88.50;;;;;;4991696;28;91967;-45
2023/12/12 10:28:50;;;;;;;;;;;4.60;88.60;;;;;;4993582;28;92882;-45
2023/12/12 10:31:18;;;;;;;;;;;4.60;88.40;;;;;;4992745;28;92568;-44
2023/12/12 10:33:43;;;;;;;;;;;4.60;88.40;;;;;;4989702;28;92130;-44
2023/12/12 10:36:12;;;;;;;;;;;4.60;88.40;;;;;;4997566;28;92259;-45
2023/12/12 10:38:38;;;;;;;;;;;4.60;88.60;;;;;;4996508;28;92014;-44
2023/12/12 10:41:20;;;;;;;;;;;4.60;88.80;;;;;;4995507;28;93033;-44
2023/12/12 10:43:46;;;;;;;;;;;4.60;88.70;;;;;;4990959;28;93568;-44
2023/12/12 10:46:12;;;;;;;;;;;4.60;88.90;;;;;;4995487;28;92735;-43
2023/12/12 10:48:45;;;;;;;;;;;4.60;88.50;;;;;;4992359;28;92233;-43
2023/12/12 10:51:11;;;;;;;;;;;4.60;88.90;;;;;;4991050;28;92613;-43
2023/12/12 10:53:37;;;;;;;;;;;4.60;89.10;;;;;;4990840;28;91892;-44
2023/12/12 10:56:04;;;;;;;;;;;4.60;88.90;;;;;;4995543;28;92008;-44
2023/12/12 10:58:31;;;;;;;;;;;4.60;88.90;;;;;;4998024;28;91472;-45
2023/12/12 11:00:57;;;;;;;;;;;4.60;89.10;;;;;;4990441;28;92272;-44
2023/12/12 11:03:22;;;;;;;;;;;4.60;89.00;;;;;;4990641;28;91944;-43
2023/12/12 11:05:49;;;;;;;;;;;4.60;89.60;;;;;;4994898;28;93100;-44
2023/12/12 11:08:14;;;;;;;;;;;4.60;89.20;;;;;;4995196;28;92726;-43
2023/12/12 11:10:40;;;;;;;;;;;4.50;89.70;;;;;;4991754;28;92469;-44
2023/12/12 11:13:06;;;;;;;;;;;4.60;89.60;;;;;;4992325;28;91959;-43
2023/12/12 11:15:32;;;;;;;;;;;4.60;89.50;;;;;;4995245;28;91808;-44
2023/12/12 11:17:59;;;;;;;;;;;4.60;89.40;;;;;;4992487;28;92976;-43
2023/12/12 11:20:24;;;;;;;;;;;4.60;89.60;;;;;;4987245;28;93073;-44
2023/12/12 11:22:51;;;;;;;;;;;4.60;89.50;;;;;;4992443;28;92925;-45
2023/12/12 11:25:20;;;;;;;;;;;4.60;89.80;;;;;;4995229;28;92050;-45
2023/12/12 11:27:53;;;;;;;;;;;4.60;90.00;;;;;;4991603;28;92937;-42
2023/12/12 11:30:19;;;;;;;;;;;4.60;89.70;;;;;;4989488;28;94603;-44
2023/12/12 11:32:45;;;;;;;;;;;4.70;90.00;;;;;;4993635;28;92084;-44
2023/12/12 11:35:31;;;;;;;;;;;4.60;89.90;;;;;;4993045;28;92752;-43
2023/12/12 11:38:23;;;;;;;;;;;4.70;89.70;;;;;;4991695;28;93606;-43
2023/12/12 11:41:06;;;;;;;;;;;4.70;89.40;;;;;;4994833;28;92069;-43
2023/12/12 11:43:32;;;;;;;;;;;4.60;90.00;;;;;;4993525;28;92344;-45
2023/12/12 11:45:58;;;;;;;;;;;4.60;89.90;;;;;;4993335;28;93061;-43
2023/12/12 11:48:26;;;;;;;;;;;4.60;90.00;;;;;;4993317;28;92934;-43
2023/12/12 11:50:52;;;;;;;;;;;4.60;89.80;;;;;;4997139;28;92399;-43
2023/12/12 11:53:36;;;;;;;;;;;4.70;90.10;;;;;;4996940;28;92100;-44
2023/12/12 11:56:02;;;;;;;;;;;4.70;90.10;;;;;;4994884;28;92922;-44
2023/12/12 11:58:27;;;;;;;;;;;4.70;90.00;;;;;;4993133;28;92314;-43
2023/12/12 12:00:53;;;;;;;;;;;4.70;90.10;;;;;;4998838;28;91908;-44
2023/12/12 12:03:21;;;;;;;;;;;4.70;90.10;;;;;;4997030;28;92435;-44
2023/12/12 12:05:46;;;;;;;;;;;4.70;90.10;;;;;;4994784;28;92867;-44
2023/12/12 12:08:12;;;;;;;;;;;4.70;90.10;;;;;;4997773;28;91946;-43
2023/12/12 12:10:38;;;;;;;;;;;4.70;90.00;;;;;;4997551;28;92654;-44
2023/12/12 12:13:03;;;;;;;;;;;4.70;90.10;;;;;;4992477;28;91887;-44
2023/12/12 12:15:29;;;;;;;;;;;4.70;90.00;;;;;;4991907;28;92071;-43
2023/12/12 12:17:56;;;;;;;;;;;4.70;90.10;;;;;;4997318;28;92469;-45
2023/12/12 12:20:22;;;;;;;;;;;4.70;90.00;;;;;;4998542;28;92973;-44
2023/12/12 12:22:48;;;;;;;;;;;4.80;90.00;;;;;;4995602;28;92764;-44
2023/12/12 12:25:19;;;;;;;;;;;4.80;90.00;;;;;;4998056;28;91889;-44
2023/12/12 12:27:49;;;;;;;;;;;4.80;90.00;;;;;;4994706;28;91978;-44
2023/12/12 12:30:16;;;;;;;;;;;4.80;90.30;;;;;;4994444;28;94039;-44
2023/12/12 12:32:55;;;;;;;;;;;4.80;90.10;;;;;;4995564;28;91957;-44
2023/12/12 12:35:21;;;;;;;;;;;4.80;90.00;;;;;;4994053;28;91935;-43
2023/12/12 12:37:46;;;;;;;;;;;4.80;89.90;;;;;;4996905;28;91597;-45
2023/12/12 12:40:30;;;;;;;;;;;4.80;90.20;;;;;;4997187;28;92033;-44
2023/12/12 12:42:55;;;;;;;;;;;4.80;89.90;;;;;;4997444;28;92207;-44
2023/12/12 12:45:23;;;;;;;;;;;4.90;90.10;;;;;;4988195;28;94744;-44
2023/12/12 12:47:49;;;;;;;;;;;4.80;90.10;;;;;;4997043;28;92103;-44
2023/12/12 12:50:14;;;;;;;;;;;4.90;90.10;;;;;;4995459;28;92565;-44
2023/12/12 12:52:40;;;;;;;;;;;4.90;90.20;;;;;;4994405;28;92102;-44
2023/12/12 12:55:07;;;;;;;;;;;4.90;90.10;;;;;;4992309;28;91745;-44
2023/12/12 12:57:32;;;;;;;;;;;4.90;90.20;;;;;;4994202;28;93521;-44
2023/12/12 12:59:58;;;;;;;;;;;4.90;90.20;;;;;;4992957;28;92033;-44
2023/12/12 13:02:23;;;;;;;;;;;4.90;90.10;;;;;;4995475;28;91878;-44
2023/12/12 13:04:49;;;;;;;;;;;4.90;90.00;;;;;;4992262;28;92538;-45
2023/12/12 13:07:15;;;;;;;;;;;4.90;90.10;;;;;;4999979;28;93055;-44
2023/12/12 13:09:40;;;;;;;;;;;4.90;90.10;;;;;;4991987;28;93474;-44
2023/12/12 13:12:06;;;;;;;;;;;4.90;90.20;;;;;;4994590;28;92105;-44
2023/12/12 13:14:31;;;;;;;;;;;5.00;90.30;;;;;;4988338;28;92967;-45
2023/12/12 13:16:57;;;;;;;;;;;5.00;90.50;;;;;;4995558;28;92467;-44
2023/12/12 13:19:26;;;;;;;;;;;5.00;90.20;;;;;;4992933;28;92028;-44
2023/12/12 13:21:52;;;;;;;;;;;5.00;90.30;;;;;;4996135;28;92541;-44
2023/12/12 13:24:18;;;;;;;;;;;5.00;90.30;;;;;;4988287;28;92765;-44
2023/12/12 13:26:44;;;;;;;;;;;5.00;90.40;;;;;;4991973;28;91320;-44
2023/12/12 13:29:10;;;;;;;;;;;5.00;90.40;;;;;;4996910;28;91899;-43
2023/12/12 13:31:35;;;;;;;;;;;5.00;90.30;;;;;;4993580;28;92708;-43
2023/12/12 13:34:01;;;;;;;;;;;5.00;90.30;;;;;;4992488;28;93012;-44
2023/12/12 13:36:26;;;;;;;;;;;5.00;90.40;;;;;;4991195;28;93516;-44
2023/12/12 13:38:54;;;;;;;;;;;5.10;90.50;;;;;;4995904;28;92080;-45
2023/12/12 13:41:20;;;;;;;;;;;5.10;90.40;;;;;;4996771;28;92287;-43
2023/12/12 13:43:45;;;;;;;;;;;5.10;90.40;;;;;;4989026;28;92671;-44
2023/12/12 13:46:11;;;;;;;;;;;5.10;90.50;;;;;;4992934;28;92117;-43
2023/12/12 13:48:37;;;;;;;;;;;5.10;90.50;;;;;;4996216;28;92632;-45
2023/12/12 13:51:03;;;;;;;;;;;5.10;90.40;;;;;;4992696;28;91807;-45
2023/12/12 13:53:28;;;;;;;;;;;5.10;90.50;;;;;;4986051;28;92241;-45
2023/12/12 13:55:54;;;;;;;;;;;5.10;90.50;;;;;;4993289;28;92838;-45
2023/12/12 13:58:22;;;;;;;;;;;5.10;90.40;;;;;;4991860;28;92943;-45
2023/12/12 14:00:48;;;;;;;;;;;5.10;90.50;;;;;;4989933;28;92666;-44
2023/12/12 14:03:13;;;;;;;;;;;5.10;90.50;;;;;;4992542;28;92644;-45
2023/12/12 14:05:39;;;;;;;;;;;5.10;90.40;;;;;;4991833;28;92068;-46
2023/12/12 14:08:05;;;;;;;;;;;5.10;90.50;;;;;;4993506;28;92469;-45
2023/12/12 14:10:30;;;;;;;;;;;5.10;90.50;;;;;;4991056;28;92459;-44
2023/12/12 14:13:00;;;;;;;;;;;5.10;90.40;;;;;;4992739;28;92010;-45
2023/12/12 14:15:26;;;;;;;;;;;5.10;90.40;;;;;;4998269;28;92736;-45
2023/12/12 14:17:51;;;;;;;;;;;5.20;90.60;;;;;;4994861;28;92320;-45
2023/12/12 14:20:17;;;;;;;;;;;5.10;90.50;;;;;;4995863;28;92784;-46
2023/12/12 14:22:43;;;;;;;;;;;5.20;90.60;;;;;;4992137;28;94605;-45
2023/12/12 14:25:09;;;;;;;;;;;5.20;90.50;;;;;;4993759;28;92579;-45